Grindstone City, Michigan
Current Conditions -  °F | °C
As of 9:38 AM on Friday 31 Oct 2014 (Local Time) from KBAX Reporting Station
Light Rain Light Rain  
Wind Chill: 41°   Ceiling: 1800
Heat Index: 41°   Visibility: 1.5mi
Dew Point: 41°   Wind: 0mph
Humidity: 100%   Direction: NA
Pressure: 29.9"   Gusts: NA
Location:  44.0077°N, 82.9857°W
Report Text: KBAX 311338Z AUTO 00000KT 1 1/2SM -RA SCT012 BKN018 OVC028 05/05 A2990 RMK AO2 T00510051
Loading
Personal Weather Stations






























Interactive Weather Map
Tropical Storm Tracking
New forecast layout! Learn more

10-Day Weather Forecast

Advertisements
Track Severe Weather on mobile